Time;durP1;ratioP1;P1;durP2;ratioP2;P2;SDS_P1;SDS_P2;PMS_P1;PMS_P2;Temp;Humidity;BMP_temperature;BMP_pressure;BME280_temperature;BME280_humidity;BME280_pressure;Samples;Min_cycle;Max_cycle;Signal;HPM_P1;HPM_P2
2022/08/02 00:00:50;;;;;;;0.40;0.40;;;18.70;99.90;;;;;;5092088;28;20209;-67
2022/08/02 00:03:42;;;;;;;0.50;0.50;;;18.70;99.90;;;;;;5091959;28;20211;-65
2022/08/02 00:06:31;;;;;;;0.50;0.50;;;18.80;99.90;;;;;;5076632;28;20664;-64
2022/08/02 00:09:20;;;;;;;0.40;0.40;;;18.70;99.90;;;;;;5073230;28;20209;-65
2022/08/02 00:12:09;;;;;;;0.43;0.43;;;18.70;99.90;;;;;;5071323;28;20228;-65
2022/08/02 00:14:58;;;;;;;0.40;0.40;;;18.60;99.90;;;;;;5073149;28;20196;-64
2022/08/02 00:17:47;;;;;;;0.60;0.50;;;18.60;99.90;;;;;;5077461;28;20677;-65
2022/08/02 00:20:35;;;;;;;0.40;0.40;;;18.60;99.90;;;;;;5075722;28;20576;-66
2022/08/02 00:23:23;;;;;;;0.40;0.40;;;18.50;99.90;;;;;;5076216;28;20224;-66
2022/08/02 00:26:13;;;;;;;0.47;0.47;;;18.60;99.90;;;;;;5075845;28;20274;-65
2022/08/02 00:29:01;;;;;;;0.40;0.40;;;18.50;99.90;;;;;;5076979;28;20204;-65
2022/08/02 00:31:49;;;;;;;1.13;1.13;;;18.50;99.90;;;;;;5075533;28;20232;-65
2022/08/02 00:34:37;;;;;;;0.50;0.50;;;18.60;99.90;;;;;;5077741;28;20275;-65
2022/08/02 00:37:25;;;;;;;0.40;0.40;;;18.40;99.90;;;;;;5076286;28;20582;-65
2022/08/02 00:40:13;;;;;;;0.40;0.40;;;18.40;99.90;;;;;;5075759;28;20204;-65
2022/08/02 00:43:05;;;;;;;0.40;0.40;;;18.40;99.90;;;;;;5075716;28;20227;-65
2022/08/02 00:45:54;;;;;;;0.40;0.40;;;18.40;99.90;;;;;;5075840;28;20196;-65
2022/08/02 00:48:50;;;;;;;0.70;0.70;;;18.40;99.90;;;;;;5076195;28;20644;-66
2022/08/02 00:51:40;;;;;;;0.40;0.40;;;18.30;99.90;;;;;;5074837;28;20269;-65
2022/08/02 00:54:28;;;;;;;3.53;1.00;;;18.30;99.90;;;;;;5075807;28;20196;-65
2022/08/02 00:57:16;;;;;;;0.50;0.50;;;18.40;99.90;;;;;;5075423;28;20208;-65
2022/08/02 01:00:07;;;;;;;0.40;0.40;;;18.30;99.90;;;;;;5075275;28;20208;-65
2022/08/02 01:02:56;;;;;;;0.82;0.82;;;18.30;99.90;;;;;;5077132;28;20220;-66
2022/08/02 01:05:44;;;;;;;0.40;0.40;;;18.30;99.90;;;;;;5082122;28;20213;-66
2022/08/02 01:08:52;;;;;;;0.40;0.40;;;18.30;99.90;;;;;;5091788;28;20655;-67
2022/08/02 01:11:40;;;;;;;1.20;0.60;;;18.30;99.90;;;;;;5094602;28;20228;-67
2022/08/02 01:14:28;;;;;;;0.40;0.40;;;18.30;99.90;;;;;;5094499;28;20416;-67
2022/08/02 01:17:22;;;;;;;1.27;1.17;;;18.30;99.90;;;;;;5094658;28;20246;-65
2022/08/02 01:20:24;;;;;;;0.40;0.40;;;18.30;99.90;;;;;;5094374;28;20805;-66
2022/08/02 01:23:26;;;;;;;0.40;0.40;;;18.20;99.90;;;;;;5094176;28;20219;-68
2022/08/02 01:26:41;;;;;;;0.40;0.40;;;18.20;99.90;;;;;;5095073;28;20565;-66
2022/08/02 01:29:34;;;;;;;0.50;0.50;;;18.20;99.90;;;;;;5094329;28;20747;-65
2022/08/02 01:32:27;;;;;;;0.50;0.50;;;18.20;99.90;;;;;;5094415;28;20224;-66
2022/08/02 01:35:23;;;;;;;0.40;0.40;;;18.20;99.90;;;;;;5094717;28;20227;-66
2022/08/02 01:38:21;;;;;;;0.40;0.40;;;18.20;99.90;;;;;;5094689;28;20200;-65
2022/08/02 01:41:14;;;;;;;0.40;0.40;;;18.20;99.90;;;;;;5094828;28;20355;-66
2022/08/02 01:44:03;;;;;;;1.20;0.80;;;18.10;99.90;;;;;;5094031;28;20350;-66
2022/08/02 01:46:56;;;;;;;2.25;0.80;;;18.10;99.90;;;;;;5094036;28;20269;-66
2022/08/02 01:49:47;;;;;;;0.55;0.55;;;18.10;99.90;;;;;;5093413;28;20224;-65
2022/08/02 01:52:39;;;;;;;0.40;0.40;;;18.20;99.90;;;;;;5094078;28;20670;-65
2022/08/02 01:55:43;;;;;;;0.40;0.40;;;18.00;99.90;;;;;;5093917;28;20196;-65
2022/08/02 01:58:47;;;;;;;0.40;0.40;;;18.00;99.90;;;;;;5091522;28;20544;-66
2022/08/02 02:01:38;;;;;;;0.40;0.40;;;18.00;99.90;;;;;;5074648;28;20203;-65
2022/08/02 02:04:31;;;;;;;0.47;0.47;;;18.10;99.90;;;;;;5074623;28;20212;-65
2022/08/02 02:07:21;;;;;;;0.50;0.50;;;17.90;99.90;;;;;;5074122;28;20677;-65
2022/08/02 02:10:13;;;;;;;0.40;0.40;;;17.90;99.90;;;;;;5073899;28;20286;-65
2022/08/02 02:13:04;;;;;;;0.45;0.45;;;17.70;99.90;;;;;;5074205;28;20233;-65
2022/08/02 02:15:53;;;;;;;0.40;0.40;;;17.70;99.90;;;;;;5075292;28;20201;-66
2022/08/02 02:18:44;;;;;;;0.40;0.40;;;17.50;99.90;;;;;;5075698;28;20286;-66
2022/08/02 02:21:34;;;;;;;0.40;0.40;;;17.40;99.90;;;;;;5074713;28;20757;-65
2022/08/02 02:24:23;;;;;;;0.40;0.40;;;17.40;99.90;;;;;;5073368;28;20208;-67
2022/08/02 02:27:14;;;;;;;0.40;0.40;;;17.30;99.90;;;;;;5074588;28;20208;-66
2022/08/02 02:30:04;;;;;;;0.40;0.40;;;17.10;99.90;;;;;;5073892;28;20323;-64
2022/08/02 02:32:57;;;;;;;0.40;0.40;;;17.00;99.90;;;;;;5074569;28;20225;-64
2022/08/02 02:35:48;;;;;;;0.40;0.40;;;16.80;99.90;;;;;;5075811;28;20205;-64
2022/08/02 02:38:39;;;;;;;0.50;0.50;;;16.70;99.90;;;;;;5073769;28;20289;-64
2022/08/02 02:41:27;;;;;;;0.40;0.40;;;16.70;99.90;;;;;;5074137;28;20232;-65
2022/08/02 02:44:19;;;;;;;0.40;0.40;;;16.60;99.90;;;;;;5073838;28;20197;-64
2022/08/02 02:47:10;;;;;;;0.40;0.40;;;16.60;99.90;;;;;;5074053;28;20197;-65
2022/08/02 02:49:59;;;;;;;0.50;0.50;;;16.30;99.90;;;;;;5073775;28;20204;-64
2022/08/02 02:52:48;;;;;;;0.40;0.40;;;16.40;99.90;;;;;;5073412;28;20216;-64
2022/08/02 02:55:38;;;;;;;0.40;0.40;;;16.40;99.90;;;;;;5075045;28;20225;-64
2022/08/02 02:58:26;;;;;;;0.40;0.40;;;16.50;99.90;;;;;;5073977;28;20451;-64
2022/08/02 03:01:29;;;;;;;0.40;0.40;;;16.60;99.90;;;;;;5073244;28;20431;-66
2022/08/02 03:04:40;;;;;;;0.40;0.40;;;16.60;99.90;;;;;;5074401;28;20204;-66
2022/08/02 03:07:44;;;;;;;1.33;1.33;;;16.80;99.90;;;;;;5093828;28;20422;-66
2022/08/02 03:10:34;;;;;;;0.40;0.40;;;16.80;99.90;;;;;;5093110;28;20204;-66
2022/08/02 03:13:24;;;;;;;0.50;0.50;;;16.90;99.90;;;;;;5093863;28;20301;-64
2022/08/02 03:16:20;;;;;;;1.33;1.23;;;17.00;99.90;;;;;;5093006;28;20465;-64
2022/08/02 03:19:08;;;;;;;0.50;0.50;;;16.90;99.90;;;;;;5093068;28;20200;-64
2022/08/02 03:21:56;;;;;;;0.40;0.40;;;16.80;99.90;;;;;;5092674;28;20216;-64
2022/08/02 03:24:44;;;;;;;0.40;0.40;;;16.60;99.90;;;;;;5093169;28;20653;-66
2022/08/02 03:27:32;;;;;;;0.40;0.40;;;16.70;99.90;;;;;;5093584;28;20207;-64
2022/08/02 03:30:23;;;;;;;0.40;0.40;;;16.60;99.90;;;;;;5092953;28;20680;-64
2022/08/02 03:33:11;;;;;;;0.40;0.40;;;16.60;99.90;;;;;;5094044;28;20219;-64
2022/08/02 03:36:03;;;;;;;0.50;0.50;;;16.60;99.90;;;;;;5093286;28;20223;-65
2022/08/02 03:38:55;;;;;;;0.40;0.40;;;16.50;99.90;;;;;;5094033;28;20434;-63
2022/08/02 03:41:43;;;;;;;0.40;0.40;;;16.50;99.90;;;;;;5093869;28;20281;-65
2022/08/02 03:44:32;;;;;;;0.40;0.40;;;16.50;99.90;;;;;;5094554;28;20207;-64
2022/08/02 03:47:22;;;;;;;0.50;0.50;;;16.40;99.90;;;;;;5093424;28;20199;-64
2022/08/02 03:50:12;;;;;;;0.43;0.43;;;16.50;99.90;;;;;;5093258;28;20426;-64
2022/08/02 03:53:01;;;;;;;0.50;0.50;;;16.30;99.90;;;;;;5094448;28;20603;-64
2022/08/02 03:55:50;;;;;;;0.70;0.70;;;16.20;99.90;;;;;;5093511;28;20934;-64
2022/08/02 03:58:38;;;;;;;0.40;0.40;;;16.20;99.90;;;;;;5093908;28;20840;-63
2022/08/02 04:01:27;;;;;;;0.50;0.50;;;16.10;99.90;;;;;;5073468;28;20427;-63
2022/08/02 04:04:17;;;;;;;0.40;0.40;;;16.00;99.90;;;;;;5072754;28;20208;-64
2022/08/02 04:07:05;;;;;;;0.50;0.50;;;16.10;99.90;;;;;;5073291;28;20434;-63
2022/08/02 04:09:54;;;;;;;0.40;0.40;;;16.00;99.90;;;;;;5072344;28;20427;-65
2022/08/02 04:12:43;;;;;;;0.40;0.40;;;16.10;99.90;;;;;;5101356;22;20687;-67
2022/08/02 04:15:31;;;;;;;0.40;0.40;;;16.10;99.90;;;;;;5077209;28;20455;-67
2022/08/02 04:18:22;;;;;;;0.40;0.40;;;16.10;99.90;;;;;;5073967;28;20424;-67
2022/08/02 04:21:15;;;;;;;0.40;0.40;;;16.30;99.90;;;;;;5072606;28;20415;-68
2022/08/02 04:24:05;;;;;;;0.40;0.40;;;16.10;99.90;;;;;;5056158;28;20501;-67
2022/08/02 04:26:59;;;;;;;0.40;0.40;;;16.20;99.90;;;;;;5053752;28;20276;-67
2022/08/02 04:30:09;;;;;;;0.40;0.40;;;16.20;99.90;;;;;;5052315;28;20434;-67
2022/08/02 04:32:58;;;;;;;0.50;0.50;;;16.20;99.90;;;;;;5053342;28;20267;-68
2022/08/02 04:35:46;;;;;;;0.40;0.40;;;16.10;99.90;;;;;;5053212;28;20498;-67
2022/08/02 04:38:36;;;;;;;0.40;0.40;;;16.20;99.90;;;;;;5053690;28;20424;-67
2022/08/02 04:41:37;;;;;;;0.50;0.50;;;16.10;99.90;;;;;;5053448;28;20431;-66
2022/08/02 04:44:30;;;;;;;4.87;2.00;;;16.10;99.90;;;;;;5054217;28;21069;-67
2022/08/02 04:47:19;;;;;;;0.40;0.40;;;16.10;99.90;;;;;;5053182;28;20428;-67
2022/08/02 04:50:27;;;;;;;0.40;0.40;;;16.00;99.90;;;;;;5053398;28;20456;-67
2022/08/02 04:53:16;;;;;;;0.40;0.40;;;16.10;99.90;;;;;;5053114;28;20452;-67
2022/08/02 04:56:05;;;;;;;0.40;0.40;;;16.00;99.90;;;;;;5059232;28;20221;-67
2022/08/02 04:58:53;;;;;;;0.40;0.40;;;16.10;99.90;;;;;;5064085;28;20420;-67
2022/08/02 05:01:42;;;;;;;0.40;0.40;;;16.10;99.90;;;;;;5058028;28;20424;-67
2022/08/02 05:04:30;;;;;;;0.40;0.40;;;16.10;99.90;;;;;;5057454;28;20436;-67
2022/08/02 05:07:18;;;;;;;0.40;0.40;;;16.20;99.90;;;;;;5056289;28;20423;-66
2022/08/02 05:10:07;;;;;;;0.40;0.40;;;16.20;99.90;;;;;;5055133;28;20573;-67
2022/08/02 05:12:56;;;;;;;0.40;0.40;;;16.40;99.90;;;;;;5055124;28;20302;-67
2022/08/02 05:15:44;;;;;;;0.40;0.40;;;16.40;99.90;;;;;;5055444;28;20243;-67
2022/08/02 05:18:32;;;;;;;0.40;0.40;;;16.60;99.90;;;;;;5055731;28;20204;-67
2022/08/02 05:21:21;;;;;;;0.40;0.40;;;16.50;99.90;;;;;;5054915;28;20212;-67
2022/08/02 05:24:09;;;;;;;0.40;0.40;;;16.60;99.90;;;;;;5055592;28;20236;-67
2022/08/02 05:26:57;;;;;;;0.40;0.40;;;16.70;99.90;;;;;;5055776;28;20198;-67
2022/08/02 05:29:47;;;;;;;4.90;4.63;;;16.80;99.90;;;;;;5055183;28;20216;-67
2022/08/02 05:32:44;;;;;;;0.40;0.40;;;16.80;99.90;;;;;;5055961;28;20448;-67
2022/08/02 05:35:33;;;;;;;0.40;0.40;;;16.90;99.90;;;;;;5053793;28;20201;-67
2022/08/02 05:38:22;;;;;;;0.40;0.40;;;16.90;99.90;;;;;;5054608;28;20228;-67
2022/08/02 05:41:13;;;;;;;0.40;0.40;;;17.00;99.90;;;;;;5052856;28;20243;-68
2022/08/02 05:44:01;;;;;;;0.40;0.40;;;17.10;99.90;;;;;;5054000;28;20224;-67
2022/08/02 05:46:50;;;;;;;0.40;0.40;;;17.20;99.90;;;;;;5054010;28;20197;-67
2022/08/02 05:49:39;;;;;;;0.40;0.40;;;17.30;99.90;;;;;;5054055;28;20205;-67
2022/08/02 05:52:35;;;;;;;0.40;0.40;;;17.40;99.90;;;;;;5053990;28;20228;-67
2022/08/02 05:55:27;;;;;;;0.40;0.40;;;17.50;99.90;;;;;;5052874;28;20280;-67
2022/08/02 05:58:24;;;;;;;0.40;0.40;;;17.70;99.90;;;;;;5054491;28;20202;-67
2022/08/02 06:01:18;;;;;;;0.40;0.40;;;17.80;99.90;;;;;;5053321;28;20631;-67
2022/08/02 06:04:09;;;;;;;0.40;0.40;;;17.90;99.90;;;;;;5054173;28;20727;-67
2022/08/02 06:07:02;;;;;;;0.40;0.40;;;17.90;99.90;;;;;;5055124;28;20193;-67
2022/08/02 06:09:51;;;;;;;0.40;0.40;;;18.20;99.90;;;;;;5055845;28;20202;-67
2022/08/02 06:12:47;;;;;;;0.40;0.40;;;18.20;99.90;;;;;;5054256;28;20233;-67
2022/08/02 06:15:36;;;;;;;0.40;0.40;;;18.30;99.90;;;;;;5054841;28;20205;-68
2022/08/02 06:18:41;;;;;;;0.40;0.40;;;18.40;99.90;;;;;;5054872;28;20193;-67
2022/08/02 06:21:32;;;;;;;0.40;0.40;;;18.50;99.90;;;;;;5052771;28;20198;-67
2022/08/02 06:24:42;;;;;;;0.40;0.40;;;18.60;99.90;;;;;;5054837;28;20284;-67
2022/08/02 06:27:31;;;;;;;0.40;0.40;;;18.70;99.90;;;;;;5052664;28;20189;-68
2022/08/02 06:30:19;;;;;;;0.40;0.40;;;18.90;99.90;;;;;;5054582;28;20201;-68
2022/08/02 06:33:07;;;;;;;0.40;0.40;;;19.00;99.90;;;;;;5055423;28;20218;-67
2022/08/02 06:36:02;;;;;;;0.40;0.40;;;19.10;99.90;;;;;;5053771;28;20202;-68
2022/08/02 06:38:56;;;;;;;0.40;0.40;;;19.10;99.90;;;;;;5054201;28;20412;-67
2022/08/02 06:41:47;;;;;;;0.40;0.40;;;19.10;99.90;;;;;;5054452;28;20201;-67
2022/08/02 06:44:37;;;;;;;0.40;0.40;;;19.20;99.90;;;;;;5055192;28;20205;-68
2022/08/02 06:47:37;;;;;;;0.40;0.40;;;19.20;99.90;;;;;;5053088;28;20700;-68
2022/08/02 06:50:26;;;;;;;0.40;0.40;;;19.30;99.90;;;;;;5053300;28;20220;-67
2022/08/02 06:53:14;;;;;;;0.40;0.40;;;19.40;99.90;;;;;;5053719;28;20224;-67
2022/08/02 06:56:04;;;;;;;0.40;0.40;;;19.50;99.90;;;;;;5053161;28;20205;-67
2022/08/02 06:58:56;;;;;;;0.40;0.40;;;19.40;99.90;;;;;;5054310;28;20208;-67
2022/08/02 07:01:44;;;;;;;0.40;0.40;;;19.50;99.90;;;;;;5053409;28;20617;-67
2022/08/02 07:04:33;;;;;;;0.40;0.40;;;19.50;99.90;;;;;;5054359;28;20208;-67
2022/08/02 07:07:21;;;;;;;0.40;0.40;;;19.50;99.90;;;;;;5053292;28;20201;-68
2022/08/02 07:10:09;;;;;;;0.40;0.40;;;19.60;99.90;;;;;;5052154;28;20197;-67
2022/08/02 07:12:59;;;;;;;0.40;0.40;;;19.70;99.90;;;;;;5054796;28;20251;-68
2022/08/02 07:15:47;;;;;;;0.40;0.40;;;19.90;99.90;;;;;;5053060;28;20208;-68
2022/08/02 07:18:36;;;;;;;0.40;0.40;;;19.80;99.90;;;;;;5053477;28;20279;-68
2022/08/02 07:21:24;;;;;;;0.40;0.40;;;19.90;99.90;;;;;;5054515;28;20224;-68
2022/08/02 07:24:32;;;;;;;0.40;0.40;;;19.90;99.90;;;;;;5058503;28;20573;-68
2022/08/02 07:27:21;;;;;;;0.40;0.40;;;20.00;99.90;;;;;;5054397;28;20264;-68
2022/08/02 07:30:11;;;;;;;0.40;0.40;;;20.00;99.90;;;;;;5053445;28;20205;-68
2022/08/02 07:32:59;;;;;;;0.40;0.40;;;20.00;99.90;;;;;;5053334;28;20274;-67
2022/08/02 07:35:48;;;;;;;0.40;0.40;;;20.10;99.90;;;;;;5054138;28;20197;-67
2022/08/02 07:38:38;;;;;;;0.40;0.40;;;20.00;99.90;;;;;;5052995;28;20284;-67
2022/08/02 07:41:28;;;;;;;0.60;0.60;;;20.10;99.90;;;;;;5053013;28;20219;-67
2022/08/02 07:44:16;;;;;;;0.40;0.40;;;20.10;99.90;;;;;;5052856;28;20596;-67
2022/08/02 07:47:06;;;;;;;0.40;0.40;;;20.20;99.90;;;;;;5052534;28;20303;-67
2022/08/02 07:49:54;;;;;;;0.40;0.40;;;20.20;99.90;;;;;;5053249;28;20197;-67
2022/08/02 07:52:42;;;;;;;0.40;0.40;;;20.40;99.90;;;;;;5053845;28;20244;-67
2022/08/02 07:55:31;;;;;;;0.40;0.40;;;20.40;99.90;;;;;;5052642;28;20592;-67
2022/08/02 07:58:27;;;;;;;0.40;0.40;;;20.50;99.90;;;;;;5052431;28;20213;-67
2022/08/02 08:01:15;;;;;;;0.40;0.40;;;20.50;99.90;;;;;;5052973;28;20193;-68
2022/08/02 08:04:05;;;;;;;0.40;0.40;;;20.70;99.90;;;;;;5052228;28;20224;-68
2022/08/02 08:06:54;;;;;;;0.40;0.40;;;20.80;99.90;;;;;;5072480;28;20197;-68
2022/08/02 08:09:42;;;;;;;0.40;0.40;;;20.90;99.90;;;;;;5073772;28;20254;-68
2022/08/02 08:12:31;;;;;;;0.40;0.40;;;21.00;99.90;;;;;;5073001;28;20264;-68
2022/08/02 08:15:19;;;;;;;0.45;0.45;;;21.10;99.90;;;;;;5073791;28;20266;-68
2022/08/02 08:18:07;;;;;;;0.40;0.40;;;21.30;99.90;;;;;;5072185;28;20215;-68
2022/08/02 08:20:59;;;;;;;0.40;0.40;;;21.50;99.90;;;;;;5071784;28;20580;-68
2022/08/02 08:23:51;;;;;;;0.40;0.40;;;21.60;99.90;;;;;;5074024;28;20221;-68
2022/08/02 08:26:39;;;;;;;0.52;0.52;;;21.70;99.90;;;;;;5073719;28;20258;-68
2022/08/02 08:29:28;;;;;;;0.40;0.40;;;21.70;99.90;;;;;;5072508;28;20216;-68
2022/08/02 08:32:16;;;;;;;0.40;0.40;;;21.60;99.90;;;;;;5073703;28;20204;-68
2022/08/02 08:35:07;;;;;;;0.40;0.40;;;21.60;99.90;;;;;;5072208;28;20192;-67
2022/08/02 08:37:56;;;;;;;0.40;0.40;;;21.60;99.90;;;;;;5075756;28;20258;-68
2022/08/02 08:40:44;;;;;;;0.40;0.40;;;21.30;99.90;;;;;;5075007;28;20200;-68
2022/08/02 08:43:33;;;;;;;0.40;0.40;;;21.20;99.90;;;;;;5077562;28;20235;-68
2022/08/02 08:46:29;;;;;;;0.40;0.40;;;21.20;99.90;;;;;;5076131;28;20201;-68
2022/08/02 08:49:24;;;;;;;0.40;0.40;;;21.30;99.90;;;;;;5075649;28;20338;-68
2022/08/02 08:52:14;;;;;;;0.43;0.43;;;21.40;99.90;;;;;;5075039;28;20290;-68
2022/08/02 08:55:07;;;;;;;0.40;0.40;;;21.40;99.90;;;;;;5076138;28;20205;-69
2022/08/02 08:57:57;;;;;;;0.40;0.40;;;21.50;99.90;;;;;;5076687;28;20295;-68
2022/08/02 09:00:47;;;;;;;0.40;0.40;;;21.50;99.90;;;;;;5075726;28;20219;-68
2022/08/02 09:03:38;;;;;;;0.40;0.40;;;21.60;99.90;;;;;;5077240;28;20299;-68
2022/08/02 09:06:26;;;;;;;0.40;0.40;;;21.60;99.90;;;;;;5060615;28;20207;-68
2022/08/02 09:09:14;;;;;;;0.50;0.50;;;21.60;99.90;;;;;;5056049;28;20270;-68
2022/08/02 09:12:14;;;;;;;0.85;0.45;;;21.80;99.90;;;;;;5056753;28;20276;-67
2022/08/02 09:15:04;;;;;;;0.40;0.40;;;21.80;99.90;;;;;;5057338;28;20216;-68
2022/08/02 09:17:52;;;;;;;0.40;0.40;;;21.80;99.90;;;;;;5056267;28;20264;-68
2022/08/02 09:20:57;;;;;;;7.72;1.60;;;21.80;99.90;;;;;;5055937;28;20208;-68
2022/08/02 09:23:47;;;;;;;0.40;0.40;;;22.00;99.90;;;;;;5056159;28;20217;-68
2022/08/02 09:26:36;;;;;;;0.40;0.40;;;22.00;99.90;;;;;;5056121;28;20197;-68
2022/08/02 09:29:26;;;;;;;0.50;0.50;;;22.10;99.90;;;;;;5055877;28;20304;-68
2022/08/02 09:32:17;;;;;;;3.50;0.80;;;22.10;99.90;;;;;;5064121;28;20209;-68
2022/08/02 09:35:06;;;;;;;0.40;0.40;;;22.20;99.90;;;;;;5058454;28;20208;-68
2022/08/02 09:38:08;;;;;;;0.40;0.40;;;22.20;99.90;;;;;;5056201;28;20214;-68
2022/08/02 09:40:57;;;;;;;0.57;0.57;;;22.50;99.90;;;;;;5063427;28;20208;-68
2022/08/02 09:43:45;;;;;;;0.40;0.40;;;22.50;99.90;;;;;;5059857;28;20225;-68
2022/08/02 09:46:53;;;;;;;0.40;0.40;;;22.50;99.90;;;;;;5057251;28;20201;-68
2022/08/02 09:49:46;;;;;;;0.40;0.40;;;22.60;99.90;;;;;;5054641;28;20204;-68
2022/08/02 09:52:43;;;;;;;0.40;0.40;;;22.80;99.90;;;;;;5055255;28;20213;-68
2022/08/02 09:55:31;;;;;;;0.40;0.40;;;23.10;99.90;;;;;;5056730;28;20658;-68
2022/08/02 09:58:20;;;;;;;0.40;0.40;;;23.20;99.90;;;;;;5054577;28;20728;-68
2022/08/02 10:01:08;;;;;;;0.40;0.40;;;23.20;99.90;;;;;;5055416;28;20201;-69
2022/08/02 10:04:04;;;;;;;0.40;0.40;;;23.30;99.90;;;;;;5055911;28;20218;-68
2022/08/02 10:06:54;;;;;;;0.40;0.40;;;23.30;99.90;;;;;;5074394;28;20758;-68
2022/08/02 10:09:44;;;;;;;0.40;0.40;;;23.60;99.90;;;;;;5074896;28;20189;-68
2022/08/02 10:12:36;;;;;;;0.40;0.40;;;23.90;99.90;;;;;;5074839;28;20228;-68
2022/08/02 10:15:24;;;;;;;0.40;0.40;;;24.00;99.90;;;;;;5075217;28;20200;-68
2022/08/02 10:18:14;;;;;;;0.40;0.40;;;24.10;99.90;;;;;;5073401;28;20223;-68
2022/08/02 10:21:29;;;;;;;0.40;0.40;;;24.30;99.90;;;;;;5073324;28;20231;-68
2022/08/02 10:24:20;;;;;;;0.40;0.40;;;24.70;99.90;;;;;;5074105;28;20224;-68
2022/08/02 10:27:14;;;;;;;0.40;0.40;;;25.10;99.90;;;;;;5074553;28;20201;-69
2022/08/02 10:30:03;;;;;;;0.50;0.50;;;25.40;99.90;;;;;;5073624;28;20200;-68
2022/08/02 10:32:53;;;;;;;0.40;0.40;;;25.30;99.90;;;;;;5074431;28;20218;-68
2022/08/02 10:35:41;;;;;;;0.40;0.40;;;25.10;99.90;;;;;;5073685;28;20275;-68
2022/08/02 10:38:32;;;;;;;0.80;0.68;;;24.90;99.90;;;;;;5074307;28;20217;-68
2022/08/02 10:41:45;;;;;;;0.40;0.40;;;24.70;99.90;;;;;;5073402;28;20200;-68
2022/08/02 10:44:34;;;;;;;0.40;0.40;;;24.40;99.90;;;;;;5073858;28;20688;-68
2022/08/02 10:47:25;;;;;;;0.50;0.50;;;24.30;99.90;;;;;;5074258;28;20208;-68
2022/08/02 10:50:13;;;;;;;0.80;0.80;;;24.40;99.90;;;;;;5072889;28;20203;-69
2022/08/02 10:53:26;;;;;;;0.40;0.40;;;24.00;99.90;;;;;;5073606;28;20216;-68
2022/08/02 10:56:37;;;;;;;0.40;0.40;;;23.90;99.90;;;;;;5074580;28;20220;-68
2022/08/02 10:59:27;;;;;;;0.40;0.40;;;24.00;99.90;;;;;;5072440;28;20220;-68
2022/08/02 11:02:35;;;;;;;0.40;0.40;;;23.80;99.90;;;;;;5073287;28;20196;-68
2022/08/02 11:05:28;;;;;;;0.40;0.40;;;23.80;99.90;;;;;;5066314;28;20205;-68
2022/08/02 11:08:30;;;;;;;0.40;0.40;;;23.90;99.90;;;;;;5055670;28;20201;-68
2022/08/02 11:11:20;;;;;;;0.40;0.40;;;24.00;99.80;;;;;;5055100;28;20206;-68
2022/08/02 11:14:29;;;;;;;0.40;0.40;;;24.00;99.70;;;;;;5058831;28;20239;-68
2022/08/02 11:17:18;;;;;;;0.40;0.40;;;24.20;99.90;;;;;;5060049;28;20220;-68
2022/08/02 11:20:17;;;;;;;0.40;0.40;;;24.20;99.90;;;;;;5056595;28;20225;-68
2022/08/02 11:23:36;;;;;;;0.40;0.40;;;24.40;99.10;;;;;;5061448;28;20225;-68
2022/08/02 11:26:45;;;;;;;0.40;0.40;;;24.60;98.20;;;;;;5055109;28;20584;-68
2022/08/02 11:29:35;;;;;;;0.70;0.65;;;24.90;98.40;;;;;;5054284;28;20197;-69
2022/08/02 11:32:26;;;;;;;1.48;0.88;;;25.00;97.20;;;;;;5054687;28;20213;-68
2022/08/02 11:35:18;;;;;;;0.40;0.40;;;25.00;96.90;;;;;;5054426;28;20686;-68
2022/08/02 11:38:18;;;;;;;0.40;0.40;;;24.90;97.50;;;;;;5053395;28;20837;-68
2022/08/02 11:41:07;;;;;;;2.35;2.25;;;25.00;96.70;;;;;;5053675;28;20374;-69
2022/08/02 11:43:58;;;;;;;0.40;0.40;;;25.00;97.20;;;;;;5053741;28;20259;-68
2022/08/02 11:46:55;;;;;;;0.40;0.40;;;25.00;95.30;;;;;;5054182;28;20205;-69
2022/08/02 11:49:43;;;;;;;0.40;0.40;;;25.00;94.90;;;;;;5054087;28;20200;-69
2022/08/02 11:52:33;;;;;;;0.40;0.40;;;24.90;95.20;;;;;;5055546;28;20228;-68
2022/08/02 11:55:28;;;;;;;0.40;0.40;;;25.00;95.40;;;;;;5056328;28;20208;-68
2022/08/02 11:58:16;;;;;;;0.40;0.40;;;25.00;95.60;;;;;;5053184;28;20580;-68
2022/08/02 12:01:06;;;;;;;0.40;0.40;;;25.10;95.80;;;;;;5053455;28;20205;-69
2022/08/02 12:03:59;;;;;;;0.70;0.70;;;25.20;95.60;;;;;;5054248;28;20325;-68
2022/08/02 12:06:54;;;;;;;0.40;0.40;;;25.30;94.90;;;;;;5073003;28;20197;-68
2022/08/02 12:09:43;;;;;;;0.40;0.40;;;25.10;94.60;;;;;;5073686;28;20203;-69
2022/08/02 12:12:32;;;;;;;0.40;0.40;;;25.10;94.40;;;;;;5074775;28;20707;-69
2022/08/02 12:15:35;;;;;;;0.40;0.40;;;25.10;94.70;;;;;;5076708;28;20201;-69
2022/08/02 12:21:30;;;;;;;0.88;0.88;;;25.30;93.70;;;;;;5077913;28;20196;-69
2022/08/02 12:24:28;;;;;;;0.40;0.40;;;25.30;93.30;;;;;;5078303;28;20220;-69
2022/08/02 12:27:30;;;;;;;0.40;0.40;;;25.30;93.50;;;;;;5076628;28;20203;-69
2022/08/02 12:30:19;;;;;;;0.40;0.40;;;25.40;93.80;;;;;;5076790;28;20234;-69
2022/08/02 12:33:14;;;;;;;0.40;0.40;;;25.60;93.60;;;;;;5076808;28;20223;-69
2022/08/02 12:36:14;;;;;;;0.40;0.38;;;25.50;93.20;;;;;;5075657;28;20275;-69
2022/08/02 12:39:03;;;;;;;0.40;0.40;;;25.70;93.40;;;;;;5075923;28;20204;-69
2022/08/02 12:41:57;;;;;;;0.40;0.40;;;;;;;;;;5076011;28;20201;-69
2022/08/02 12:44:51;;;;;;;0.40;0.40;;;26.20;92.40;;;;;;5076092;28;20208;-68
2022/08/02 12:47:45;;;;;;;0.40;0.40;;;26.40;91.10;;;;;;5077749;28;20203;-68
2022/08/02 12:50:36;;;;;;;0.40;0.40;;;27.00;90.80;;;;;;5076731;28;20266;-69
2022/08/02 12:53:33;;;;;;;0.40;0.40;;;27.80;90.00;;;;;;5076597;28;20231;-69
2022/08/02 12:56:29;;;;;;;0.40;0.40;;;29.40;86.00;;;;;;5076393;28;20192;-70
2022/08/02 12:59:33;;;;;;;0.40;0.40;;;31.20;82.90;;;;;;5075123;28;20602;-70
2022/08/02 13:02:26;;;;;;;0.40;0.40;;;33.10;77.10;;;;;;5077924;28;20693;-70
2022/08/02 13:05:14;;;;;;;0.40;0.40;;;34.60;71.30;;;;;;5076066;28;20271;-70
2022/08/02 13:08:04;;;;;;;0.50;0.50;;;36.00;66.40;;;;;;5073520;28;20192;-70
2022/08/02 13:10:53;;;;;;;0.82;0.50;;;37.60;60.00;;;;;;5072888;28;20193;-70
2022/08/02 13:13:42;;;;;;;0.50;0.50;;;38.40;56.80;;;;;;5071966;28;20231;-70
2022/08/02 13:16:31;;;;;;;0.40;0.40;;;38.60;54.00;;;;;;5073357;28;20699;-70
2022/08/02 13:19:19;;;;;;;0.57;0.57;;;39.00;53.40;;;;;;5073866;28;20216;-69
2022/08/02 13:22:08;;;;;;;0.40;0.40;;;40.70;50.60;;;;;;5074362;28;20239;-69
2022/08/02 13:24:58;;;;;;;0.40;0.40;;;42.30;48.30;;;;;;5074201;28;20193;-71
2022/08/02 13:27:48;;;;;;;0.40;0.40;;;43.40;45.70;;;;;;5073758;28;20201;-71
2022/08/02 13:30:36;;;;;;;0.40;0.40;;;44.50;43.80;;;;;;5073990;28;20204;-70
2022/08/02 13:33:24;;;;;;;0.50;0.50;;;43.90;41.00;;;;;;5074237;28;20240;-71
2022/08/02 13:36:12;;;;;;;0.40;0.40;;;42.90;41.80;;;;;;5073039;28;20200;-69
2022/08/02 13:39:01;;;;;;;0.40;0.40;;;42.00;42.20;;;;;;5072969;28;20197;-69
2022/08/02 13:41:49;;;;;;;0.40;0.40;;;41.70;43.10;;;;;;5072805;28;20197;-68
2022/08/02 13:44:38;;;;;;;0.50;0.50;;;42.40;42.10;;;;;;5072990;28;20213;-69
2022/08/02 13:47:26;;;;;;;0.40;0.40;;;42.00;41.90;;;;;;5073313;28;20200;-69
2022/08/02 13:50:34;;;;;;;0.60;0.60;;;41.30;42.70;;;;;;5072632;28;20193;-68
2022/08/02 13:53:23;;;;;;;0.40;0.40;;;41.20;42.30;;;;;;5073108;28;20221;-68
2022/08/02 13:56:11;;;;;;;0.40;0.40;;;40.60;42.80;;;;;;5073463;28;20223;-68
2022/08/02 13:58:59;;;;;;;0.50;0.50;;;40.10;43.50;;;;;;5073195;28;20208;-69
2022/08/02 14:02:08;;;;;;;0.40;0.40;;;40.40;42.30;;;;;;5072812;28;20759;-68
2022/08/02 14:04:56;;;;;;;0.40;0.40;;;39.70;43.90;;;;;;5073063;28;20307;-69
2022/08/02 14:07:45;;;;;;;0.40;0.40;;;39.50;43.90;;;;;;5073645;28;20677;-70
2022/08/02 14:10:33;;;;;;;0.50;0.50;;;39.10;43.50;;;;;;5072767;28;20204;-71
2022/08/02 14:13:21;;;;;;;0.80;0.80;;;38.10;44.40;;;;;;5073359;28;20229;-72
2022/08/02 14:16:09;;;;;;;0.40;0.40;;;36.90;45.10;;;;;;5075061;28;20231;-70
2022/08/02 14:18:59;;;;;;;0.40;0.40;;;35.90;46.20;;;;;;5074692;28;20585;-69
2022/08/02 14:21:47;;;;;;;0.40;0.40;;;35.40;46.90;;;;;;5073295;28;20228;-69
2022/08/02 14:24:35;;;;;;;0.40;0.40;;;34.90;47.30;;;;;;5074390;28;20192;-70
2022/08/02 14:27:23;;;;;;;0.40;0.40;;;35.10;47.70;;;;;;5075559;28;20192;-70
2022/08/02 14:30:12;;;;;;;0.40;0.40;;;35.60;47.50;;;;;;5074336;28;20727;-69
2022/08/02 14:33:02;;;;;;;0.40;0.40;;;35.70;46.50;;;;;;5074053;28;20217;-69
2022/08/02 14:35:51;;;;;;;0.40;0.40;;;35.90;47.50;;;;;;5073523;28;20208;-69
2022/08/02 14:38:43;;;;;;;0.50;0.50;;;36.70;45.90;;;;;;5072335;28;20277;-70
2022/08/02 14:41:32;;;;;;;0.40;0.40;;;38.40;45.00;;;;;;5071172;28;20240;-70
2022/08/02 14:44:40;;;;;;;0.40;0.40;;;39.90;43.70;;;;;;5072168;28;20683;-67
2022/08/02 14:47:28;;;;;;;0.50;0.50;;;41.70;41.90;;;;;;5071655;28;20192;-67
2022/08/02 14:50:17;;;;;;;0.50;0.50;;;42.50;40.40;;;;;;5072530;28;20207;-70
2022/08/02 14:53:07;;;;;;;0.40;0.40;;;42.00;40.10;;;;;;5072069;28;20232;-68
2022/08/02 14:56:00;;;;;;;0.50;0.50;;;41.60;41.20;;;;;;5071815;28;20201;-68
2022/08/02 14:58:48;;;;;;;0.40;0.40;;;41.20;41.00;;;;;;5071883;28;20200;-70